Time,TemperatureF,DewpointF,PressureIn,WindDirection,WindDirectionDegrees,WindSpeedMPH,WindSpeedGustMPH,Humidity,HourlyPrecipIn,Conditions,Clouds,dailyrainin,SoftwareType,DateUTC
2013-02-02 00:01:00,37.6,32.0,29.91,WNW,288,1.0,9.0,81,0.00,,,0.00,weatherlink.com 1.10,2013-02-02 00:01:00,
2013-02-02 00:16:00,37.5,32.0,29.92,WSW,239,6.0,10.0,81,0.00,,,0.00,weatherlink.com 1.10,2013-02-02 00:16:00,
2013-02-02 00:31:00,37.2,32.0,29.92,WSW,248,4.0,6.0,81,0.00,,,0.00,weatherlink.com 1.10,2013-02-02 00:31:00,
2013-02-02 00:46:00,37.2,32.0,29.93,NW,316,4.0,6.0,82,0.00,,,0.00,weatherlink.com 1.10,2013-02-02 00:46:00,
2013-02-02 01:01:00,37.2,32.0,29.94,WSW,242,2.0,6.0,82,0.00,,,0.00,weatherlink.com 1.10,2013-02-02 01:01:00,
2013-02-02 01:16:00,37.3,32.0,29.94,West,263,5.0,7.0,82,0.00,,,0.00,weatherlink.com 1.10,2013-02-02 01:16:00,
2013-02-02 01:31:00,37.3,32.0,29.95,SW,215,1.0,5.0,82,0.00,,,0.00,weatherlink.com 1.10,2013-02-02 01:31:00,
2013-02-02 01:46:00,37.2,32.0,29.96,West,267,1.0,5.0,82,0.00,,,0.00,weatherlink.com 1.10,2013-02-02 01:46:00,
2013-02-02 02:01:00,36.9,32.0,29.96,WSW,248,5.0,6.0,83,0.00,,,0.00,weatherlink.com 1.10,2013-02-02 02:01:00,
2013-02-02 02:16:00,36.7,32.0,29.98,West,280,2.0,5.0,84,0.00,,,0.00,weatherlink.com 1.10,2013-02-02 02:16:00,
2013-02-02 02:31:00,36.2,32.0,29.99,WNW,290,1.0,5.0,85,0.00,,,0.00,weatherlink.com 1.10,2013-02-02 02:31:00,
2013-02-02 02:46:00,36.3,32.0,30.00,WSW,242,1.0,6.0,85,0.00,,,0.00,weatherlink.com 1.10,2013-02-02 02:46:00,
2013-02-02 03:01:00,36.5,32.0,30.00,WSW,245,1.0,5.0,85,0.00,,,0.00,weatherlink.com 1.10,2013-02-02 03:01:00,
2013-02-02 03:16:00,36.7,32.0,30.01,NW,305,2.0,5.0,84,0.00,,,0.00,weatherlink.com 1.10,2013-02-02 03:16:00,
2013-02-02 03:31:00,36.8,32.0,30.02,NW,311,1.0,6.0,84,0.00,,,0.00,weatherlink.com 1.10,2013-02-02 03:31:00,
2013-02-02 03:46:00,36.6,32.0,30.02,West,267,2.0,7.0,84,0.00,,,0.00,weatherlink.com 1.10,2013-02-02 03:46:00,
2013-02-02 04:01:00,36.3,32.0,30.03,WNW,291,3.0,6.0,85,0.00,,,0.00,weatherlink.com 1.10,2013-02-02 04:01:00,
2013-02-02 04:16:00,35.9,32.0,30.05,WSW,253,1.0,6.0,86,0.00,,,0.00,weatherlink.com 1.10,2013-02-02 04:16:00,
2013-02-02 04:31:00,35.7,32.0,30.05,West,266,1.0,5.0,86,0.00,,,0.00,weatherlink.com 1.10,2013-02-02 04:31:00,
2013-02-02 04:46:00,36.0,32.0,30.06,West,281,3.0,6.0,86,0.00,,,0.00,weatherlink.com 1.10,2013-02-02 04:46:00,
2013-02-02 05:02:00,36.1,32.0,30.06,NW,307,3.0,6.0,86,0.00,,,0.00,weatherlink.com 1.10,2013-02-02 05:02:00,
2013-02-02 05:17:00,36.1,32.0,30.07,West,266,1.0,5.0,86,0.00,,,0.00,weatherlink.com 1.10,2013-02-02 05:17:00,
2013-02-02 05:32:00,35.9,32.0,30.07,North,358,0.0,4.0,86,0.00,,,0.00,weatherlink.com 1.10,2013-02-02 05:32:00,
2013-02-02 05:47:00,35.7,32.0,30.08,West,280,3.0,5.0,86,0.00,,,0.00,weatherlink.com 1.10,2013-02-02 05:47:00,
2013-02-02 06:02:00,35.5,32.0,30.08,West,278,2.0,4.0,87,0.00,,,0.00,weatherlink.com 1.10,2013-02-02 06:02:00,
2013-02-02 06:17:00,35.6,32.0,30.09,WSW,246,2.0,5.0,87,0.00,,,0.00,weatherlink.com 1.10,2013-02-02 06:17:00,
2013-02-02 06:32:00,35.9,32.0,30.10,West,271,2.0,8.0,87,0.00,,,0.00,weatherlink.com 1.10,2013-02-02 06:32:00,
2013-02-02 06:47:00,35.7,32.0,30.11,West,277,2.0,7.0,87,0.00,,,0.00,weatherlink.com 1.10,2013-02-02 06:47:00,
2013-02-02 07:02:00,35.5,32.0,30.12,WNW,285,2.0,6.0,87,0.00,,,0.00,weatherlink.com 1.10,2013-02-02 07:02:00,
2013-02-02 07:17:00,35.3,32.0,30.13,West,281,1.0,5.0,87,0.00,,,0.00,weatherlink.com 1.10,2013-02-02 07:17:00,
2013-02-02 07:32:00,35.3,32.0,30.14,WSW,253,1.0,6.0,87,0.00,,,0.00,weatherlink.com 1.10,2013-02-02 07:32:00,
2013-02-02 07:47:00,35.3,32.0,30.15,NNW,338,3.0,7.0,88,0.00,,,0.00,weatherlink.com 1.10,2013-02-02 07:47:00,
2013-02-02 08:17:00,35.0,32.0,30.16,WSW,253,3.0,5.0,88,0.00,,,0.00,weatherlink.com 1.10,2013-02-02 08:17:00,
2013-02-02 08:32:00,35.1,32.0,30.17,West,270,2.0,6.0,88,0.00,,,0.00,weatherlink.com 1.10,2013-02-02 08:32:00,
2013-02-02 08:47:00,35.2,32.0,30.18,West,269,1.0,4.0,88,0.00,,,0.00,weatherlink.com 1.10,2013-02-02 08:47:00,
2013-02-02 09:02:00,35.3,32.0,30.19,West,266,3.0,5.0,89,0.00,,,0.00,weatherlink.com 1.10,2013-02-02 09:02:00,
2013-02-02 09:17:00,35.7,33.0,30.20,West,262,2.0,6.0,88,0.00,,,0.00,weatherlink.com 1.10,2013-02-02 09:17:00,
2013-02-02 09:32:00,36.1,33.0,30.20,WNW,300,2.0,5.0,88,0.00,,,0.00,weatherlink.com 1.10,2013-02-02 09:32:00,
2013-02-02 09:48:00,36.7,33.0,30.22,West,274,5.0,7.0,87,0.00,,,0.00,weatherlink.com 1.10,2013-02-02 09:48:00,
2013-02-02 10:02:00,37.3,34.0,30.22,WSW,256,3.0,7.0,86,0.00,,,0.00,weatherlink.com 1.10,2013-02-02 10:02:00,
2013-02-02 10:17:00,37.9,34.0,30.23,NW,326,2.0,6.0,85,0.00,,,0.00,weatherlink.com 1.10,2013-02-02 10:17:00,
2013-02-02 10:32:00,38.6,34.0,30.23,West,264,4.0,5.0,84,0.00,,,0.00,weatherlink.com 1.10,2013-02-02 10:32:00,
2013-02-02 10:47:00,39.1,34.0,30.24,West,273,2.0,5.0,82,0.00,,,0.00,weatherlink.com 1.10,2013-02-02 10:47:00,
2013-02-02 11:02:00,39.8,34.0,30.25,WSW,243,2.0,4.0,81,0.00,,,0.00,weatherlink.com 1.10,2013-02-02 11:02:00,
2013-02-02 11:18:00,40.5,35.0,30.25,West,259,3.0,5.0,80,0.00,,,0.00,weatherlink.com 1.10,2013-02-02 11:18:00,
2013-02-02 11:33:00,41.3,35.0,30.25,NW,309,1.0,3.0,78,0.00,,,0.00,weatherlink.com 1.10,2013-02-02 11:33:00,
2013-02-02 11:48:00,41.8,35.0,30.25,NNE,16,3.0,4.0,77,0.00,,,0.00,weatherlink.com 1.10,2013-02-02 11:48:00,
2013-02-02 12:03:00,42.3,35.0,30.25,NW,307,3.0,6.0,74,0.00,,,0.00,weatherlink.com 1.10,2013-02-02 12:03:00,
2013-02-02 12:18:00,42.8,35.0,30.24,NE,39,4.0,6.0,73,0.00,,,0.00,weatherlink.com 1.10,2013-02-02 12:18:00,
2013-02-02 12:33:00,43.2,35.0,30.25,NNW,330,4.0,7.0,72,0.00,,,0.00,weatherlink.com 1.10,2013-02-02 12:33:00,
2013-02-02 12:48:00,43.5,34.0,30.25,NW,325,1.0,7.0,69,0.00,,,0.00,weatherlink.com 1.10,2013-02-02 12:48:00,
2013-02-02 13:03:00,43.7,34.0,30.25,NNE,26,4.0,7.0,68,0.00,,,0.00,weatherlink.com 1.10,2013-02-02 13:03:00,
2013-02-02 13:18:00,43.7,34.0,30.26,WNW,302,2.0,9.0,69,0.00,,,0.00,weatherlink.com 1.10,2013-02-02 13:18:00,
2013-02-02 13:33:00,44.3,34.0,30.26,NNE,19,3.0,8.0,68,0.00,,,0.00,weatherlink.com 1.10,2013-02-02 13:33:00,
2013-02-02 13:48:00,44.2,33.0,30.26,WNW,301,2.0,8.0,65,0.00,,,0.00,weatherlink.com 1.10,2013-02-02 13:48:00,
2013-02-02 14:18:00,44.1,33.0,30.27,WSW,253,2.0,8.0,66,0.00,,,0.00,weatherlink.com 1.10,2013-02-02 14:18:00,
2013-02-02 14:34:00,44.3,34.0,30.27,NNE,18,2.0,6.0,66,0.00,,,0.00,weatherlink.com 1.10,2013-02-02 14:34:00,
2013-02-02 14:48:00,44.4,33.0,30.28,SSW,206,4.0,8.0,64,0.00,,,0.00,weatherlink.com 1.10,2013-02-02 14:48:00,
2013-02-02 15:03:00,44.4,33.0,30.27,West,281,0.0,5.0,65,0.00,,,0.00,weatherlink.com 1.10,2013-02-02 15:03:00,
2013-02-02 15:18:00,44.6,33.0,30.27,NNW,338,5.0,8.0,64,0.00,,,0.00,weatherlink.com 1.10,2013-02-02 15:18:00,
2013-02-02 15:33:00,44.5,33.0,30.28,West,262,2.0,6.0,64,0.00,,,0.00,weatherlink.com 1.10,2013-02-02 15:33:00,
2013-02-02 15:48:00,44.7,32.0,30.28,WSW,250,2.0,5.0,62,0.00,,,0.00,weatherlink.com 1.10,2013-02-02 15:48:00,
2013-02-02 16:03:00,44.8,32.0,30.28,SW,228,1.0,6.0,62,0.00,,,0.00,weatherlink.com 1.10,2013-02-02 16:03:00,
2013-02-02 16:18:00,44.5,32.0,30.28,NW,307,2.0,3.0,63,0.00,,,0.00,weatherlink.com 1.10,2013-02-02 16:18:00,
2013-02-02 16:33:00,44.1,33.0,30.29,West,278,1.0,5.0,64,0.00,,,0.00,weatherlink.com 1.10,2013-02-02 16:33:00,
2013-02-02 16:48:00,43.6,32.0,30.29,SW,229,3.0,6.0,65,0.00,,,0.00,weatherlink.com 1.10,2013-02-02 16:48:00,
2013-02-02 17:03:00,43.2,32.0,30.29,WSW,239,4.0,6.0,66,0.00,,,0.00,weatherlink.com 1.10,2013-02-02 17:03:00,
2013-02-02 17:18:00,42.8,32.0,30.29,WNW,285,2.0,5.0,67,0.00,,,0.00,weatherlink.com 1.10,2013-02-02 17:18:00,
2013-02-02 17:33:00,42.4,32.0,30.29,WSW,247,0.0,4.0,68,0.00,,,0.00,weatherlink.com 1.10,2013-02-02 17:33:00,
2013-02-02 17:48:00,41.7,33.0,30.29,WNW,288,0.0,2.0,70,0.00,,,0.00,weatherlink.com 1.10,2013-02-02 17:48:00,
2013-02-02 18:03:00,41.3,33.0,30.29,West,269,0.0,1.0,71,0.00,,,0.00,weatherlink.com 1.10,2013-02-02 18:03:00,
2013-02-02 18:18:00,41.0,33.0,30.28,WSW,252,0.0,2.0,73,0.00,,,0.00,weatherlink.com 1.10,2013-02-02 18:18:00,
2013-02-02 18:33:00,40.9,33.0,30.28,West,262,1.0,3.0,74,0.00,,,0.00,weatherlink.com 1.10,2013-02-02 18:33:00,
2013-02-02 18:48:00,40.7,33.0,30.28,West,260,0.0,3.0,73,0.00,,,0.00,weatherlink.com 1.10,2013-02-02 18:48:00,
2013-02-02 19:03:00,40.1,32.0,30.28,West,260,1.0,3.0,74,0.00,,,0.00,weatherlink.com 1.10,2013-02-02 19:03:00,
2013-02-02 19:18:00,39.7,32.0,30.29,SE,129,0.0,1.0,75,0.00,,,0.00,weatherlink.com 1.10,2013-02-02 19:18:00,
2013-02-02 19:33:00,39.7,33.0,30.28,WSW,252,0.0,1.0,76,0.00,,,0.00,weatherlink.com 1.10,2013-02-02 19:33:00,
2013-02-02 19:48:00,39.5,33.0,30.27,WSW,255,0.0,3.0,76,0.00,,,0.00,weatherlink.com 1.10,2013-02-02 19:48:00,
2013-02-02 20:03:00,39.6,32.0,30.26,WSW,255,1.0,3.0,75,0.00,,,0.00,weatherlink.com 1.10,2013-02-02 20:03:00,
2013-02-02 20:18:00,39.5,32.0,30.25,WSW,250,2.0,3.0,75,0.00,,,0.00,weatherlink.com 1.10,2013-02-02 20:18:00,
2013-02-02 20:33:00,39.5,32.0,30.25,WSW,246,1.0,2.0,75,0.00,,,0.00,weatherlink.com 1.10,2013-02-02 20:33:00,
2013-02-02 20:48:00,39.5,32.0,30.25,WSW,256,0.0,1.0,75,0.00,,,0.00,weatherlink.com 1.10,2013-02-02 20:48:00,
2013-02-02 21:03:00,39.8,32.0,30.24,SW,224,2.0,2.0,75,0.00,,,0.00,weatherlink.com 1.10,2013-02-02 21:03:00,
2013-02-02 21:18:00,40.5,33.0,30.23,SSW,208,4.0,6.0,74,0.00,,,0.00,weatherlink.com 1.10,2013-02-02 21:18:00,
2013-02-02 21:33:00,41.0,33.0,30.24,SSE,162,2.0,4.0,73,0.00,,,0.00,weatherlink.com 1.10,2013-02-02 21:33:00,
2013-02-02 21:48:00,41.5,33.0,30.24,West,280,1.0,5.0,73,0.00,,,0.00,weatherlink.com 1.10,2013-02-02 21:48:00,
2013-02-02 22:03:00,41.8,34.0,30.23,WSW,248,1.0,6.0,73,0.00,,,0.00,weatherlink.com 1.10,2013-02-02 22:03:00,
2013-02-02 22:18:00,42.1,34.0,30.23,WNW,284,2.0,7.0,72,0.00,,,0.00,weatherlink.com 1.10,2013-02-02 22:18:00,
2013-02-02 22:33:00,42.2,34.0,30.21,SW,229,4.0,8.0,72,0.00,,,0.00,weatherlink.com 1.10,2013-02-02 22:33:00,
2013-02-02 22:48:00,42.3,34.0,30.21,SSE,160,4.0,5.0,73,0.00,,,0.00,weatherlink.com 1.10,2013-02-02 22:48:00,
2013-02-02 23:03:00,42.7,35.0,30.22,West,270,5.0,9.0,74,0.00,,,0.00,weatherlink.com 1.10,2013-02-02 23:03:00,
2013-02-02 23:18:00,42.9,36.0,30.20,North,1,3.0,7.0,75,0.00,,,0.00,weatherlink.com 1.10,2013-02-02 23:18:00,
2013-02-02 23:34:00,43.0,36.0,30.19,SW,218,8.0,9.0,76,0.00,,,0.00,weatherlink.com 1.10,2013-02-02 23:34:00,
2013-02-02 23:49:00,43.1,36.0,30.19,WSW,244,6.0,10.0,77,0.00,,,0.00,weatherlink.com 1.10,2013-02-02 23:49:00,